Terminal Aerodrome Forecast
Issued by NWS

Home | Current Version | Previous Version | Text Only | Print | Product List | Glossary On
Versions: 1 2 3 4 5 6 7 8 9 10 11 12 13 14
000
FTUS44 KTSA 242300
TAFFYV
TAF
KFYV 242339Z 2500/2524 17010KT P6SM OVC110
     FM250200 16012KT P6SM SCT015 BKN120
      TEMPO 2502/2505 BKN015 OVC120
     FM251400 21015KT P6SM SCT150 SCT250=

USA.gov is the U.S. government's official web portal to all federal, state and local government web resources and services.